sensor_id;sensor_type;location;lat;lon;timestamp;pressure;altitude;pressure_sealevel;temperature;humidity
29879;BME280;16752;53.364;-1.488;2023-03-02T17:40:42;101610.28;;;15.13;34.28
29879;BME280;16752;53.364;-1.488;2023-03-02T18:02:43;101641.91;;;15.00;34.38
29879;BME280;16752;53.364;-1.488;2023-03-02T18:31:44;101671.94;;;15.12;33.66
29879;BME280;16752;53.364;-1.488;2023-03-02T18:46:49;101686.47;;;15.05;33.89
29879;BME280;16752;53.364;-1.488;2023-03-02T19:05:05;101691.66;;;14.35;35.41
29879;BME280;16752;53.364;-1.488;2023-03-02T19:07:41;101695.66;;;14.56;35.31
29879;BME280;16752;53.364;-1.488;2023-03-02T19:10:13;101693.56;;;14.90;34.73
29879;BME280;16752;53.364;-1.488;2023-03-02T19:13:08;101692.34;;;14.67;34.92
29879;BME280;16752;53.364;-1.488;2023-03-02T19:15:44;101695.91;;;14.94;35.14
29879;BME280;16752;53.364;-1.488;2023-03-02T19:18:19;101695.06;;;14.94;34.82
29879;BME280;16752;53.364;-1.488;2023-03-02T19:21:00;101696.28;;;15.03;34.53
29879;BME280;16752;53.364;-1.488;2023-03-02T19:23:46;101689.88;;;14.35;35.70
29879;BME280;16752;53.364;-1.488;2023-03-02T19:29:44;101705.16;;;14.87;35.07
29879;BME280;16752;53.364;-1.488;2023-03-02T19:32:35;101706.31;;;14.11;35.96
29879;BME280;16752;53.364;-1.488;2023-03-02T19:35:12;101714.13;;;14.85;34.74
29879;BME280;16752;53.364;-1.488;2023-03-02T19:37:45;101708.50;;;14.32;35.07
29879;BME280;16752;53.364;-1.488;2023-03-02T19:40:13;101713.84;;;14.61;35.62
29879;BME280;16752;53.364;-1.488;2023-03-02T19:42:56;101712.50;;;14.82;35.25
29879;BME280;16752;53.364;-1.488;2023-03-02T19:45:28;101719.19;;;14.88;34.91
29879;BME280;16752;53.364;-1.488;2023-03-02T19:48:14;101717.88;;;14.81;35.16
29879;BME280;16752;53.364;-1.488;2023-03-02T19:51:00;101725.22;;;14.90;35.28
29879;BME280;16752;53.364;-1.488;2023-03-02T19:53:32;101718.44;;;14.86;35.74
29879;BME280;16752;53.364;-1.488;2023-03-02T19:59:18;101730.53;;;14.76;35.74
29879;BME280;16752;53.364;-1.488;2023-03-02T20:02:07;101731.44;;;14.89;35.17
29879;BME280;16752;53.364;-1.488;2023-03-02T20:04:42;101733.63;;;14.82;34.83
29879;BME280;16752;53.364;-1.488;2023-03-02T20:07:10;101732.38;;;14.88;34.56
29879;BME280;16752;53.364;-1.488;2023-03-02T20:09:44;101736.34;;;14.81;34.71
29879;BME280;16752;53.364;-1.488;2023-03-02T20:12:18;101736.31;;;14.95;34.96
29879;BME280;16752;53.364;-1.488;2023-03-02T20:14:53;101739.25;;;14.90;35.23
29879;BME280;16752;53.364;-1.488;2023-03-02T20:18:08;101740.88;;;14.64;35.15
29879;BME280;16752;53.364;-1.488;2023-03-02T20:20:41;101731.09;;;14.81;35.22
29879;BME280;16752;53.364;-1.488;2023-03-02T20:23:15;101737.84;;;14.85;35.41
29879;BME280;16752;53.364;-1.488;2023-03-02T20:25:47;101734.53;;;14.53;35.35
29879;BME280;16752;53.364;-1.488;2023-03-02T20:28:19;101738.09;;;14.52;35.67
29879;BME280;16752;53.364;-1.488;2023-03-02T20:31:17;101741.53;;;14.68;35.47
29879;BME280;16752;53.364;-1.488;2023-03-02T20:33:46;101741.81;;;14.78;35.21
29879;BME280;16752;53.364;-1.488;2023-03-02T20:36:33;101743.44;;;13.44;37.50
29879;BME280;16752;53.364;-1.488;2023-03-02T20:39:22;101744.06;;;14.55;36.10
29879;BME280;16752;53.364;-1.488;2023-03-02T20:42:10;101754.41;;;14.73;35.98
29879;BME280;16752;53.364;-1.488;2023-03-02T20:44:36;101752.94;;;14.83;35.49
29879;BME280;16752;53.364;-1.488;2023-03-02T20:49:54;101752.94;;;14.54;36.55
29879;BME280;16752;53.364;-1.488;2023-03-02T20:52:49;101752.63;;;14.15;36.75
29879;BME280;16752;53.364;-1.488;2023-03-02T20:55:20;101754.88;;;14.51;36.58
29879;BME280;16752;53.364;-1.488;2023-03-02T20:58:01;101752.44;;;14.62;35.85
29879;BME280;16752;53.364;-1.488;2023-03-02T21:00:38;101758.19;;;14.68;35.02
29879;BME280;16752;53.364;-1.488;2023-03-02T21:03:09;101761.50;;;14.72;35.29
29879;BME280;16752;53.364;-1.488;2023-03-02T21:05:38;101757.66;;;14.33;35.83
29879;BME280;16752;53.364;-1.488;2023-03-02T21:08:08;101763.00;;;14.62;35.13
29879;BME280;16752;53.364;-1.488;2023-03-02T21:10:38;101760.09;;;14.66;34.87
29879;BME280;16752;53.364;-1.488;2023-03-02T21:13:06;101764.91;;;13.84;36.37
29879;BME280;16752;53.364;-1.488;2023-03-02T21:15:37;101769.81;;;14.36;35.53
29879;BME280;16752;53.364;-1.488;2023-03-02T21:18:50;101771.09;;;14.29;35.68
29879;BME280;16752;53.364;-1.488;2023-03-02T21:21:35;101771.63;;;14.20;36.07
29879;BME280;16752;53.364;-1.488;2023-03-02T21:24:03;101780.78;;;13.98;35.99
29879;BME280;16752;53.364;-1.488;2023-03-02T21:26:33;101773.19;;;14.54;35.08
29879;BME280;16752;53.364;-1.488;2023-03-02T21:29:04;101774.47;;;14.47;35.45
29879;BME280;16752;53.364;-1.488;2023-03-02T21:31:51;101774.56;;;14.29;35.90
29879;BME280;16752;53.364;-1.488;2023-03-02T21:34:23;101771.94;;;14.59;35.15
29879;BME280;16752;53.364;-1.488;2023-03-02T21:36:52;101778.16;;;14.58;35.32
29879;BME280;16752;53.364;-1.488;2023-03-02T21:39:23;101777.75;;;14.50;35.36
29879;BME280;16752;53.364;-1.488;2023-03-02T21:41:54;101782.38;;;14.31;36.08
29879;BME280;16752;53.364;-1.488;2023-03-02T21:47:30;101781.09;;;14.38;35.86
29879;BME280;16752;53.364;-1.488;2023-03-02T21:50:15;101778.41;;;14.24;36.23
29879;BME280;16752;53.364;-1.488;2023-03-02T21:52:56;101778.03;;;14.46;35.66
29879;BME280;16752;53.364;-1.488;2023-03-02T21:55:44;101787.56;;;14.48;35.92
29879;BME280;16752;53.364;-1.488;2023-03-02T21:58:22;101775.00;;;14.37;36.42
29879;BME280;16752;53.364;-1.488;2023-03-02T22:01:13;101780.13;;;13.95;36.74
29879;BME280;16752;53.364;-1.488;2023-03-02T22:04:00;101781.78;;;14.42;35.86
29879;BME280;16752;53.364;-1.488;2023-03-02T22:09:20;101770.94;;;14.32;36.17
29879;BME280;16752;53.364;-1.488;2023-03-02T22:11:51;101777.81;;;14.34;35.97
29879;BME280;16752;53.364;-1.488;2023-03-02T22:17:45;101776.47;;;13.82;37.32
29879;BME280;16752;53.364;-1.488;2023-03-02T22:20:23;101772.06;;;14.42;35.96
29879;BME280;16752;53.364;-1.488;2023-03-02T22:23:04;101767.59;;;14.44;35.59
29879;BME280;16752;53.364;-1.488;2023-03-02T22:25:37;101776.53;;;14.12;36.58
29879;BME280;16752;53.364;-1.488;2023-03-02T22:28:18;101784.63;;;14.23;36.52
29879;BME280;16752;53.364;-1.488;2023-03-02T22:30:56;101774.13;;;14.37;35.93
29879;BME280;16752;53.364;-1.488;2023-03-02T22:33:49;101775.84;;;14.38;36.03
29879;BME280;16752;53.364;-1.488;2023-03-02T22:36:23;101661.59;;;13.79;35.74
29879;BME280;16752;53.364;-1.488;2023-03-02T22:39:27;101772.91;;;14.43;35.75
29879;BME280;16752;53.364;-1.488;2023-03-02T22:42:19;101778.59;;;14.21;35.90
29879;BME280;16752;53.364;-1.488;2023-03-02T22:44:54;101775.66;;;14.41;35.78
29879;BME280;16752;53.364;-1.488;2023-03-02T22:47:31;101777.53;;;14.39;35.42
29879;BME280;16752;53.364;-1.488;2023-03-02T22:49:58;101782.19;;;14.20;35.63
29879;BME280;16752;53.364;-1.488;2023-03-02T22:55:35;101783.16;;;14.33;35.31
29879;BME280;16752;53.364;-1.488;2023-03-02T23:01:27;101790.28;;;14.31;36.15
29879;BME280;16752;53.364;-1.488;2023-03-02T23:04:13;101787.66;;;14.31;35.67
29879;BME280;16752;53.364;-1.488;2023-03-02T23:15:51;101792.53;;;14.23;35.62
29879;BME280;16752;53.364;-1.488;2023-03-02T23:22:04;101789.50;;;14.15;35.70
29879;BME280;16752;53.364;-1.488;2023-03-02T23:25:07;101794.03;;;14.13;35.60
29879;BME280;16752;53.364;-1.488;2023-03-02T23:27:49;101787.00;;;14.27;35.52
